TAF Text Data
IDs:
Format:
Raw Decoded Include METAR

Data at: 0811 UTC 25 Apr 2019

KSBD 250520Z 2506/2606 VRB04KT P6SM SKC
  FM252000 26011KT P6SM SKC
  FM260400 VRB04KT P6SM SKC